sensor_id;sensor_type;location;lat;lon;timestamp;pressure;altitude;pressure_sealevel;temperature;humidity
32330;BME280;18807;52.434;13.238;2023-09-08T00:01:04;75969.63;;;-142.05;79.73
32330;BME280;18807;52.434;13.238;2023-09-08T00:08:40;75969.63;;;-142.05;80.09
32330;BME280;18807;52.434;13.238;2023-09-08T00:16:17;75983.91;;;-142.05;80.83
32330;BME280;18807;52.434;13.238;2023-09-08T00:23:51;75992.06;;;-142.05;81.67
32330;BME280;18807;52.434;13.238;2023-09-08T00:31:27;75992.06;;;-142.05;84.47
32330;BME280;18807;52.434;13.238;2023-09-08T00:39:02;75996.16;;;-142.05;92.65
32330;BME280;18807;52.434;13.238;2023-09-08T00:46:41;76008.41;;;-142.05;98.68
32330;BME280;18807;52.434;13.238;2023-09-08T00:54:16;76028.81;;;-142.05;96.82
32330;BME280;18807;52.434;13.238;2023-09-08T01:01:53;76041.06;;;-142.05;95.30
32330;BME280;18807;52.434;13.238;2023-09-08T01:09:28;76051.25;;;-142.05;96.59
32330;BME280;18807;52.434;13.238;2023-09-08T01:17:05;76057.38;;;-142.05;94.71
32330;BME280;18807;52.434;13.238;2023-09-08T01:25:15;76063.50;;;-142.05;95.46
32330;BME280;18807;52.434;13.238;2023-09-08T01:32:52;76077.78;;;-142.05;98.55
32330;BME280;18807;52.434;13.238;2023-09-08T01:40:31;76081.88;;;-142.05;100.00
32330;BME280;18807;52.434;13.238;2023-09-08T01:48:05;76094.13;;;-142.05;100.00
32330;BME280;18807;52.434;13.238;2023-09-08T01:55:43;76100.25;;;-142.05;100.00
32330;BME280;18807;52.434;13.238;2023-09-08T02:03:18;76102.28;;;-142.05;100.00
32330;BME280;18807;52.434;13.238;2023-09-08T02:10:54;76118.59;;;-142.05;100.00
32330;BME280;18807;52.434;13.238;2023-09-08T02:18:28;76120.66;;;-142.05;100.00
32330;BME280;18807;52.434;13.238;2023-09-08T02:26:04;76128.81;;;-142.05;100.00
32330;BME280;18807;52.434;13.238;2023-09-08T02:33:38;76128.81;;;-142.05;100.00
32330;BME280;18807;52.434;13.238;2023-09-08T02:41:14;76139.03;;;-142.05;100.00
32330;BME280;18807;52.434;13.238;2023-09-08T02:48:48;76143.09;;;-142.05;100.00
32330;BME280;18807;52.434;13.238;2023-09-08T02:56:24;76143.09;;;-142.05;100.00
32330;BME280;18807;52.434;13.238;2023-09-08T03:03:58;76141.06;;;-142.05;100.00
32330;BME280;18807;52.434;13.238;2023-09-08T03:11:35;76143.09;;;-142.05;100.00
32330;BME280;18807;52.434;13.238;2023-09-08T03:19:10;76151.25;;;-142.05;100.00
32330;BME280;18807;52.434;13.238;2023-09-08T03:26:46;76159.44;;;-142.05;100.00
32330;BME280;18807;52.434;13.238;2023-09-08T03:34:20;76163.50;;;-142.05;100.00
32330;BME280;18807;52.434;13.238;2023-09-08T03:41:57;76175.75;;;-142.05;100.00
32330;BME280;18807;52.434;13.238;2023-09-08T03:49:31;76179.84;;;-142.05;100.00
32330;BME280;18807;52.434;13.238;2023-09-08T03:57:09;76194.13;;;-142.05;100.00
32330;BME280;18807;52.434;13.238;2023-09-08T04:04:43;76192.09;;;-142.05;100.00
32330;BME280;18807;52.434;13.238;2023-09-08T04:12:20;76200.25;;;-142.05;100.00
32330;BME280;18807;52.434;13.238;2023-09-08T04:19:54;76208.41;;;-142.05;100.00
32330;BME280;18807;52.434;13.238;2023-09-08T04:27:31;76208.41;;;-142.05;100.00
32330;BME280;18807;52.434;13.238;2023-09-08T04:35:08;76222.69;;;-142.05;100.00
32330;BME280;18807;52.434;13.238;2023-09-08T04:42:43;76226.78;;;-142.05;100.00
32330;BME280;18807;52.434;13.238;2023-09-08T04:50:19;76224.75;;;-142.05;100.00
32330;BME280;18807;52.434;13.238;2023-09-08T04:57:55;76224.75;;;-142.05;100.00
32330;BME280;18807;52.434;13.238;2023-09-08T05:05:30;76241.06;;;-142.05;100.00
32330;BME280;18807;52.434;13.238;2023-09-08T05:13:06;76241.06;;;-142.05;100.00
32330;BME280;18807;52.434;13.238;2023-09-08T05:21:00;76236.97;;;-142.05;100.00
32330;BME280;18807;52.434;13.238;2023-09-08T05:28:36;76228.81;;;-142.05;100.00
32330;BME280;18807;52.434;13.238;2023-09-08T05:36:12;76220.66;;;-142.05;100.00
32330;BME280;18807;52.434;13.238;2023-09-08T05:43:49;76192.09;;;-142.05;100.00
32330;BME280;18807;52.434;13.238;2023-09-08T05:51:23;76175.75;;;-142.05;100.00
32330;BME280;18807;52.434;13.238;2023-09-08T05:59:03;76145.13;;;-142.05;100.00
32330;BME280;18807;52.434;13.238;2023-09-08T06:06:38;76081.88;;;-142.05;100.00
32330;BME280;18807;52.434;13.238;2023-09-08T06:14:14;76036.97;;;-142.05;100.00
32330;BME280;18807;52.434;13.238;2023-09-08T06:21:49;75981.88;;;-142.05;97.28
32330;BME280;18807;52.434;13.238;2023-09-08T06:29:25;75930.84;;;-142.05;88.88
32330;BME280;18807;52.434;13.238;2023-09-08T06:36:59;75906.34;;;-142.05;86.17
32330;BME280;18807;52.434;13.238;2023-09-08T06:44:35;75845.13;;;-142.05;82.74
32330;BME280;18807;52.434;13.238;2023-09-08T06:52:08;75800.22;;;-142.05;78.75
32330;BME280;18807;52.434;13.238;2023-09-08T06:59:44;75757.38;;;-142.05;77.33
32330;BME280;18807;52.434;13.238;2023-09-08T07:07:19;75743.09;;;-142.05;76.54
32330;BME280;18807;52.434;13.238;2023-09-08T07:14:55;75692.06;;;-142.05;72.16
32330;BME280;18807;52.434;13.238;2023-09-08T07:22:29;75659.44;;;-142.05;71.56
32330;BME280;18807;52.434;13.238;2023-09-08T07:30:07;75636.97;;;-142.05;72.14
32330;BME280;18807;52.434;13.238;2023-09-08T07:37:42;75592.09;;;-142.05;70.25
32330;BME280;18807;52.434;13.238;2023-09-08T07:45:18;75551.28;;;-142.05;69.78
32330;BME280;18807;52.434;13.238;2023-09-08T07:52:53;75508.41;;;-142.05;65.65
32330;BME280;18807;52.434;13.238;2023-09-08T08:00:29;75428.84;;;-142.05;63.71
32330;BME280;18807;52.434;13.238;2023-09-08T08:08:04;75324.78;;;-142.05;60.61
32330;BME280;18807;52.434;13.238;2023-09-08T08:15:44;75243.16;;;-142.05;56.68
32330;BME280;18807;52.434;13.238;2023-09-08T08:23:20;75132.97;;;-142.05;55.81
32330;BME280;18807;52.434;13.238;2023-09-08T08:30:56;75035.03;;;-142.05;51.57
32330;BME280;18807;52.434;13.238;2023-09-08T08:38:30;74975.88;;;-142.05;50.02
32330;BME280;18807;52.434;13.238;2023-09-08T08:46:09;74910.56;;;-142.05;48.98
32330;BME280;18807;52.434;13.238;2023-09-08T08:53:44;74865.69;;;-142.05;46.58
32330;BME280;18807;52.434;13.238;2023-09-08T09:01:20;74837.13;;;-142.05;50.63
32330;BME280;18807;52.434;13.238;2023-09-08T09:08:55;74788.16;;;-142.05;44.90
32330;BME280;18807;52.434;13.238;2023-09-08T09:16:39;74720.84;;;-142.05;44.58
32330;BME280;18807;52.434;13.238;2023-09-08T09:24:14;74647.41;;;-142.05;41.83
32330;BME280;18807;52.434;13.238;2023-09-08T09:31:57;74627.00;;;-142.05;42.36
32330;BME280;18807;52.434;13.238;2023-09-08T09:39:37;74608.63;;;-142.05;41.19
32330;BME280;18807;52.434;13.238;2023-09-08T09:47:13;74576.00;;;-142.05;41.67
32330;BME280;18807;52.434;13.238;2023-09-08T09:54:47;74565.78;;;-142.05;40.27
32330;BME280;18807;52.434;13.238;2023-09-08T10:02:26;74551.50;;;-142.05;41.04
32330;BME280;18807;52.434;13.238;2023-09-08T10:10:01;74580.06;;;-142.05;39.56
32330;BME280;18807;52.434;13.238;2023-09-08T10:17:40;74584.16;;;-142.05;40.69
32330;BME280;18807;52.434;13.238;2023-09-08T10:25:17;74596.38;;;-142.05;39.81
32330;BME280;18807;52.434;13.238;2023-09-08T10:32:54;74610.66;;;-142.05;40.50
32330;BME280;18807;52.434;13.238;2023-09-08T10:40:30;74610.66;;;-142.05;39.65
32330;BME280;18807;52.434;13.238;2023-09-08T10:48:09;74614.75;;;-142.05;38.93
32330;BME280;18807;52.434;13.238;2023-09-08T10:55:45;74598.44;;;-142.05;39.46
32330;BME280;18807;52.434;13.238;2023-09-08T11:03:54;74608.63;;;-142.05;38.67
32330;BME280;18807;52.434;13.238;2023-09-08T11:11:33;74567.84;;;-142.05;38.29
32330;BME280;18807;52.434;13.238;2023-09-08T11:19:10;74573.94;;;-142.05;38.22
32330;BME280;18807;52.434;13.238;2023-09-08T11:26:48;74561.72;;;-142.05;38.14
32330;BME280;18807;52.434;13.238;2023-09-08T11:34:28;74551.50;;;-142.05;38.10
32330;BME280;18807;52.434;13.238;2023-09-08T11:42:03;74543.34;;;-142.05;37.19
32330;BME280;18807;52.434;13.238;2023-09-08T11:49:40;74543.34;;;-142.05;37.64
32330;BME280;18807;52.434;13.238;2023-09-08T11:57:15;74527.03;;;-142.05;37.15
32330;BME280;18807;52.434;13.238;2023-09-08T12:04:54;74510.72;;;-142.05;36.66
32330;BME280;18807;52.434;13.238;2023-09-08T12:12:29;74510.72;;;-142.05;36.92
32330;BME280;18807;52.434;13.238;2023-09-08T12:20:15;74486.22;;;-142.05;35.81
32330;BME280;18807;52.434;13.238;2023-09-08T12:27:50;74474.00;;;-142.05;35.61
32330;BME280;18807;52.434;13.238;2023-09-08T12:35:27;74455.63;;;-142.05;35.88
32330;BME280;18807;52.434;13.238;2023-09-08T12:43:05;74449.50;;;-142.05;36.00
32330;BME280;18807;52.434;13.238;2023-09-08T12:51:01;74437.28;;;-142.05;35.57
32330;BME280;18807;52.434;13.238;2023-09-08T12:58:36;74420.94;;;-142.05;36.18
32330;BME280;18807;52.434;13.238;2023-09-08T13:06:12;74420.94;;;-142.05;35.71
32330;BME280;18807;52.434;13.238;2023-09-08T13:13:47;74408.72;;;-142.05;35.49
32330;BME280;18807;52.434;13.238;2023-09-08T13:21:23;74414.84;;;-142.05;35.41
32330;BME280;18807;52.434;13.238;2023-09-08T13:28:58;74396.47;;;-142.05;36.04
32330;BME280;18807;52.434;13.238;2023-09-08T13:36:34;74372.00;;;-142.05;35.80
32330;BME280;18807;52.434;13.238;2023-09-08T13:44:08;74355.69;;;-142.05;35.97
32330;BME280;18807;52.434;13.238;2023-09-08T13:51:44;74339.34;;;-142.05;36.22
32330;BME280;18807;52.434;13.238;2023-09-08T13:59:21;74316.91;;;-142.05;35.43
32330;BME280;18807;52.434;13.238;2023-09-08T14:07:00;74296.50;;;-142.05;35.49
32330;BME280;18807;52.434;13.238;2023-09-08T14:14:45;74304.69;;;-142.05;34.78
32330;BME280;18807;52.434;13.238;2023-09-08T14:22:22;74327.13;;;-142.05;35.27
32330;BME280;18807;52.434;13.238;2023-09-08T14:29:57;74318.97;;;-142.05;35.39
32330;BME280;18807;52.434;13.238;2023-09-08T14:37:34;74306.72;;;-142.05;36.20
32330;BME280;18807;52.434;13.238;2023-09-08T14:45:10;74288.34;;;-142.05;34.98
32330;BME280;18807;52.434;13.238;2023-09-08T14:52:46;74267.97;;;-142.05;34.46
32330;BME280;18807;52.434;13.238;2023-09-08T15:00:21;74259.81;;;-142.05;34.97
32330;BME280;18807;52.434;13.238;2023-09-08T15:07:57;74261.84;;;-142.05;35.19
32330;BME280;18807;52.434;13.238;2023-09-08T15:15:36;74237.34;;;-142.05;34.28
32330;BME280;18807;52.434;13.238;2023-09-08T15:23:12;74270.00;;;-142.05;34.28
32330;BME280;18807;52.434;13.238;2023-09-08T15:30:47;74286.31;;;-142.05;34.66
32330;BME280;18807;52.434;13.238;2023-09-08T15:38:24;74306.72;;;-142.05;34.93
32330;BME280;18807;52.434;13.238;2023-09-08T15:45:58;74306.72;;;-142.05;34.75
32330;BME280;18807;52.434;13.238;2023-09-08T15:53:35;74314.88;;;-142.05;35.41
32330;BME280;18807;52.434;13.238;2023-09-08T16:01:09;74325.06;;;-142.05;35.70
32330;BME280;18807;52.434;13.238;2023-09-08T16:08:46;74343.44;;;-142.05;35.66
32330;BME280;18807;52.434;13.238;2023-09-08T16:16:20;74351.59;;;-142.05;35.63
32330;BME280;18807;52.434;13.238;2023-09-08T16:23:57;74343.44;;;-142.05;35.98
32330;BME280;18807;52.434;13.238;2023-09-08T16:31:31;74361.78;;;-142.05;36.06
32330;BME280;18807;52.434;13.238;2023-09-08T16:39:07;74392.41;;;-142.05;36.02
32330;BME280;18807;52.434;13.238;2023-09-08T16:46:41;74414.84;;;-142.05;36.71
32330;BME280;18807;52.434;13.238;2023-09-08T16:54:17;74433.19;;;-142.05;36.71
32330;BME280;18807;52.434;13.238;2023-09-08T17:01:52;74476.03;;;-142.05;36.57
32330;BME280;18807;52.434;13.238;2023-09-08T17:09:28;74496.44;;;-142.05;37.04
32330;BME280;18807;52.434;13.238;2023-09-08T17:17:03;74533.16;;;-142.05;38.14
32330;BME280;18807;52.434;13.238;2023-09-08T17:24:40;74563.75;;;-142.05;38.68
32330;BME280;18807;52.434;13.238;2023-09-08T17:32:15;74588.22;;;-142.05;39.78
32330;BME280;18807;52.434;13.238;2023-09-08T17:39:53;74620.88;;;-142.05;41.74
32330;BME280;18807;52.434;13.238;2023-09-08T17:47:27;74667.78;;;-142.05;43.63
32330;BME280;18807;52.434;13.238;2023-09-08T17:55:03;74702.47;;;-142.05;44.94
32330;BME280;18807;52.434;13.238;2023-09-08T18:02:38;74757.56;;;-142.05;46.04
32330;BME280;18807;52.434;13.238;2023-09-08T18:10:16;74794.28;;;-142.05;47.09
32330;BME280;18807;52.434;13.238;2023-09-08T18:17:51;74831.00;;;-142.05;46.75
32330;BME280;18807;52.434;13.238;2023-09-08T18:25:27;74857.53;;;-142.05;47.52
32330;BME280;18807;52.434;13.238;2023-09-08T18:33:03;74886.09;;;-142.05;48.80
32330;BME280;18807;52.434;13.238;2023-09-08T18:40:45;74912.63;;;-142.05;49.10
32330;BME280;18807;52.434;13.238;2023-09-08T18:48:20;74935.06;;;-142.05;49.60
32330;BME280;18807;52.434;13.238;2023-09-08T18:55:59;74957.50;;;-142.05;49.70
32330;BME280;18807;52.434;13.238;2023-09-08T19:03:37;74984.03;;;-142.05;49.55
32330;BME280;18807;52.434;13.238;2023-09-08T19:11:16;75020.75;;;-142.05;51.23
32330;BME280;18807;52.434;13.238;2023-09-08T19:18:51;75051.34;;;-142.05;53.09
32330;BME280;18807;52.434;13.238;2023-09-08T19:26:27;75071.75;;;-142.05;53.91
32330;BME280;18807;52.434;13.238;2023-09-08T19:34:01;75100.31;;;-142.05;54.12
32330;BME280;18807;52.434;13.238;2023-09-08T19:41:38;75128.88;;;-142.05;54.64
32330;BME280;18807;52.434;13.238;2023-09-08T19:49:13;75155.41;;;-142.05;55.29
32330;BME280;18807;52.434;13.238;2023-09-08T19:56:48;75179.91;;;-142.05;56.58
32330;BME280;18807;52.434;13.238;2023-09-08T20:04:23;75200.31;;;-142.05;57.70
32330;BME280;18807;52.434;13.238;2023-09-08T20:12:00;75218.66;;;-142.05;58.88
32330;BME280;18807;52.434;13.238;2023-09-08T20:19:36;75232.94;;;-142.05;59.93
32330;BME280;18807;52.434;13.238;2023-09-08T20:27:11;75253.34;;;-142.05;61.38
32330;BME280;18807;52.434;13.238;2023-09-08T20:34:46;75279.88;;;-142.05;62.89
32330;BME280;18807;52.434;13.238;2023-09-08T20:42:22;75298.25;;;-142.05;64.31
32330;BME280;18807;52.434;13.238;2023-09-08T20:49:57;75330.88;;;-142.05;65.39
32330;BME280;18807;52.434;13.238;2023-09-08T20:57:33;75343.13;;;-142.05;65.54
32330;BME280;18807;52.434;13.238;2023-09-08T21:05:08;75353.34;;;-142.05;66.53
32330;BME280;18807;52.434;13.238;2023-09-08T21:12:43;75371.69;;;-142.05;67.80
32330;BME280;18807;52.434;13.238;2023-09-08T21:20:18;75383.94;;;-142.05;67.39
32330;BME280;18807;52.434;13.238;2023-09-08T21:27:54;75396.19;;;-142.05;67.23
32330;BME280;18807;52.434;13.238;2023-09-08T21:35:29;75412.50;;;-142.05;67.96
32330;BME280;18807;52.434;13.238;2023-09-08T21:43:06;75424.75;;;-142.05;69.27
32330;BME280;18807;52.434;13.238;2023-09-08T21:50:40;75437.00;;;-142.05;70.08
32330;BME280;18807;52.434;13.238;2023-09-08T21:58:17;75451.28;;;-142.05;70.81
32330;BME280;18807;52.434;13.238;2023-09-08T22:05:51;75473.72;;;-142.05;70.50
32330;BME280;18807;52.434;13.238;2023-09-08T22:13:27;75485.97;;;-142.05;71.04
32330;BME280;18807;52.434;13.238;2023-09-08T22:21:03;75506.38;;;-142.05;71.75
32330;BME280;18807;52.434;13.238;2023-09-08T22:28:41;75512.50;;;-142.05;72.86
32330;BME280;18807;52.434;13.238;2023-09-08T22:36:18;75520.66;;;-142.05;74.16
32330;BME280;18807;52.434;13.238;2023-09-08T22:43:54;75536.97;;;-142.05;74.41
32330;BME280;18807;52.434;13.238;2023-09-08T22:51:29;75557.38;;;-142.05;74.45
32330;BME280;18807;52.434;13.238;2023-09-08T22:59:06;75565.56;;;-142.05;75.33
32330;BME280;18807;52.434;13.238;2023-09-08T23:06:40;75579.84;;;-142.05;76.18
32330;BME280;18807;52.434;13.238;2023-09-08T23:14:18;75596.16;;;-142.05;76.50
32330;BME280;18807;52.434;13.238;2023-09-08T23:21:53;75610.44;;;-142.05;78.79
32330;BME280;18807;52.434;13.238;2023-09-08T23:29:32;75624.72;;;-142.05;80.01
32330;BME280;18807;52.434;13.238;2023-09-08T23:37:06;75636.97;;;-142.05;81.19
32330;BME280;18807;52.434;13.238;2023-09-08T23:44:42;75649.22;;;-142.05;82.26
32330;BME280;18807;52.434;13.238;2023-09-08T23:52:16;75657.38;;;-142.05;82.97
32330;BME280;18807;52.434;13.238;2023-09-08T23:59:53;75659.44;;;-142.05;83.47
